Terminal Aerodrome Forecast
Issued by NWS

Home | Current Version | Previous Version | Text Only | Print | Product List | Glossary On
Versions: 1 2 3 4 5 6 7 8 9 10 11
000
FTUS46 KSEW 282300
TAFCLM
TAF
KCLM 282320Z 2900/2924 VRB04KT P6SM BKN030 BKN050
     FM290600 05006KT P6SM SCT050 BKN100
     FM291100 05012KT P6SM SCT100 BKN250
     FM292000 10012KT P6SM FEW100 SCT250=

USA.gov is the U.S. government's official web portal to all federal, state and local government web resources and services.